To NAV CANADA Home Page Login to a new session Search on AWWS site Feedback and Comments Disclaimer Vers la page française équivalente Tips FAQ What's new on the site To the Forecasts and Observations / NOTAM section To "File a Flight Plan" website Publications and other links Update of the User's profile FIC Telephone Numbers My Weather Data Folder Route Weather Data Regional Weather Data Local Weather Data To the Forecasts and Observations / NOTAM section
Request Generated 07/06/2015 at 05:08:24 UTC . Weather information available at that time is displayed.

METAR/TAF

MONTREAL/ST-HUBERT/QC    (show WxCam)

METAR CYHU 060500Z AUTO 22005KT 9SM CLR 18/16 A3010 RMK SLP192
DENSITY ALT 300FT=
METAR CYHU 060400Z AUTO 17002KT 9SM CLR 18/15 A3009 RMK SLP191
DENSITY ALT 300FT=
METAR CYHU 060300Z AUTO 29004KT 9SM CLR 22/15 A3010 RMK SLP193
DENSITY ALT 700FT=

TAF CYHU 052339Z 0600/0624 25010KT P6SM FEW040 SCT240
BECMG 0602/0604 23005KT
BECMG 0614/0616 23012KT
RMK FCST BASED ON AUTO OBS. NXT FCST BY 060600Z=
Your time UTC time
Weather data provided by Environment Canada and NAV CANADA